Star Kirkenes — LAHR7 — position and weather

sailwx.info

Track history (hours):
 
Tides and Currents Weather Stations Pressure Air Temp Water Temp Dewpoint Dewpoint Depression Visibility Wind Speed Wind Dir Waves Ship Positions

Star Kirkenes

Last reported at 2017-Oct-03 05:24 UTC. Time now 2017-Oct-17 18:51 UTC.
Position N 32°58' W 015°27'.
Warning: this ship's position is 14 days out of date.

Length 208 m; draft 9.3 m.

Type: Cargo ship. MMSI: 257310000.

Date/timePositionNaut miles runAvg speedWind from/ knotsBaromVisibWave heightAir tempDewpointWater temp
2017-Oct-03 05:24N 32°58' W 015°27'2613.2
2017-Oct-03 03:26N 33°20' W 015°11'613.1
2017-Oct-03 02:59N 33°25' W 015°07'1312.7
2017-Oct-03 01:58N 33°36' W 014°59'912.6
2017-Oct-03 01:16N 33°44' W 014°54'412.6
2017-Oct-03 00:59N 33°47' W 014°52'612.6
2017-Oct-03 00:30N 33°52' W 014°48'612.7
2017-Oct-03 00:00N 33°57' W 014°43'612.7
2017-Oct-02 23:30N 34°03' W 014°39'612.9
2017-Oct-02 23:00N 34°08' W 014°35'712.9
2017-Oct-02 22:30N 34°14' W 014°31'712.9
2017-Oct-02 21:56N 34°20' W 014°26'612.7
2017-Oct-02 21:29N 34°25' W 014°22'912.7
2017-Oct-02 20:47N 34°32' W 014°16'1113.0
2017-Oct-02 19:56N 34°42' W 014°10'613.1
2017-Oct-02 19:30N 34°47' W 014°07'713.2
2017-Oct-02 18:56N 34°53' W 014°03'613.1
2017-Oct-02 18:29N 34°59' W 013°59'713.2
2017-Oct-02 17:59N 35°04' W 013°56'713.5
2017-Oct-02 17:29N 35°10' W 013°52'913.4
2017-Oct-02 16:49N 35°18' W 013°46'1413.3
2017-Oct-02 15:45N 35°30' W 013°38'413.5
2017-Oct-02 15:30N 35°33' W 013°35'813.4
2017-Oct-02 14:54N 35°40' W 013°30'513.3
2017-Oct-02 14:30N 35°45' W 013°27'713.2
2017-Oct-02 13:58N 35°51' W 013°22'6013.1
2017-Oct-02 09:24N 36°41' W 012°43'1212.6
2017-Oct-02 08:28N 36°51' W 012°36'1912.9
2017-Oct-02 06:58N 37°10' W 012°31'4113.3
2017-Oct-02 03:54N 37°50' W 012°17'1313.6
2017-Oct-02 02:56N 38°02' W 012°12'713.3
2017-Oct-02 02:26N 38°09' W 012°09'613.3
2017-Oct-02 02:00N 38°14' W 012°08'613.0
2017-Oct-02 01:30N 38°20' W 012°06'612.9
2017-Oct-02 01:00N 38°27' W 012°03'613.0
2017-Oct-02 00:30N 38°33' W 012°01'713.0
2017-Oct-02 00:00N 38°39' W 011°58'613.0
2017-Oct-01 23:30N 38°45' W 011°56'713.0
2017-Oct-01 23:00N 38°51' W 011°53'713.1
2017-Oct-01 22:30N 38°58' W 011°51'713.1
2017-Oct-01 22:00N 39°04' W 011°48'612.9
2017-Oct-01 21:30N 39°10' W 011°46'612.8
2017-Oct-01 21:00N 39°16' W 011°44'612.8
2017-Oct-01 20:30N 39°22' W 011°41'912.7
2017-Oct-01 19:49N 39°31' W 011°38'412.8
2017-Oct-01 19:28N 39°35' W 011°36'612.8
2017-Oct-01 18:59N 39°41' W 011°34'1313.0
2017-Oct-01 18:01N 39°53' W 011°29'113.1
2017-Oct-01 17:58N 39°54' W 011°29'7612.7
2017-Oct-01 12:00N 41°06' W 011°00'14612.2 350 / 121024.0 5.4 21.019.519.0
2017-Oct-01 00:00N 43°30' W 010°24'22910.4 260 / 151022.0 5.4 19.017.519.5
2017-Sep-30 02:00N 43°46' W 005°08'611.2
2017-Sep-30 01:30N 43°45' W 005°00'611.2
2017-Sep-30 01:00N 43°44' W 004°53'2411.7
2017-Sep-29 22:56N 43°40' W 004°19'511.9
2017-Sep-29 22:30N 43°39' W 004°13'611.9
2017-Sep-29 22:00N 43°38' W 004°05'612.2
2017-Sep-29 21:30N 43°37' W 003°56'612.2
2017-Sep-29 21:00N 43°36' W 003°48'611.8
2017-Sep-29 20:30N 43°31' W 003°45'4 7.8
2017-Sep-29 20:00N 43°27' W 003°48'1 0.4
2017-Sep-29 16:58N 43°27' W 003°49'0 0.0
2017-Sep-28 04:10N 43°27' W 003°49'0 0.0
2017-Sep-28 00:28N 43°27' W 003°49'0 0.0
2017-Sep-27 20:34N 43°27' W 003°49'0 0.0
2017-Sep-27 20:28N 43°27' W 003°49'0 0.0
2017-Sep-27 19:58N 43°27' W 003°49'0 0.0
2017-Sep-27 19:28N 43°27' W 003°49'0 0.0
2017-Sep-27 18:58N 43°27' W 003°49'0 0.0
2017-Sep-27 17:34N 43°27' W 003°49'0 0.1
2017-Sep-27 17:28N 43°27' W 003°49'0 0.0
2017-Sep-27 16:58N 43°27' W 003°49'0 0.0
2017-Sep-27 16:16N 43°27' W 003°49'0 0.0
2017-Sep-27 15:34N 43°27' W 003°49'0 0.0
2017-Sep-27 15:22N 43°27' W 003°49'0 0.0
2017-Sep-27 14:55N 43°27' W 003°49'0 0.0
2017-Sep-27 13:22N 43°27' W 003°49'  
2017-Sep-25 03:44N 43°44' W 005°06'710.6
2017-Sep-25 03:07N 43°45' W 005°15'110.6
2017-Sep-25 02:59N 43°45' W 005°17'510.6
2017-Sep-25 02:30N 43°46' W 005°24'610.8
2017-Sep-25 01:57N 43°47' W 005°32'510.5
2017-Sep-25 01:27N 43°48' W 005°39'510.5
2017-Sep-25 01:00N 43°49' W 005°46'610.8
2017-Sep-25 00:29N 43°49' W 005°53'510.6
2017-Sep-25 00:00N 43°50' W 006°01'5310.6
2017-Sep-24 18:58N 43°56' W 007°14'510.2
2017-Sep-24 18:29N 43°57' W 007°21'510.4
2017-Sep-24 18:00N 43°57' W 007°28'510.4
2017-Sep-24 17:30N 43°58' W 007°35'510.4
2017-Sep-24 17:00N 43°58' W 007°42'510.3
2017-Sep-24 16:30N 43°58' W 007°49'510.4
2017-Sep-24 16:00N 43°57' W 007°57'510.3
2017-Sep-24 15:30N 43°57' W 008°04'910.4
2017-Sep-24 14:40N 43°56' W 008°16'310.7
2017-Sep-24 14:26N 43°56' W 008°19'  
Track history (hours):
 
Tides and Currents Weather Stations Pressure Air Temp Water Temp Dewpoint Dewpoint Depression Visibility Wind Speed Wind Dir Waves Ship Positions

Star Kirkenes

Last reported at 2017-Oct-03 05:24 UTC. Time now 2017-Oct-17 18:51 UTC.
Position N 32°58' W 015°27'.
Warning: this ship's position is 14 days out of date.

Length 208 m; draft 9.3 m.

Type: Cargo ship. MMSI: 257310000.

Date/timePositionNaut miles runAvg speedWind from/ knotsBaromVisibWave heightAir tempDewpointWater temp
2017-Oct-03 05:24N 32°58' W 015°27'2613.2
2017-Oct-03 03:26N 33°20' W 015°11'613.1
2017-Oct-03 02:59N 33°25' W 015°07'1312.7
2017-Oct-03 01:58N 33°36' W 014°59'912.6
2017-Oct-03 01:16N 33°44' W 014°54'412.6
2017-Oct-03 00:59N 33°47' W 014°52'612.6
2017-Oct-03 00:30N 33°52' W 014°48'612.7
2017-Oct-03 00:00N 33°57' W 014°43'612.7
2017-Oct-02 23:30N 34°03' W 014°39'612.9
2017-Oct-02 23:00N 34°08' W 014°35'712.9
2017-Oct-02 22:30N 34°14' W 014°31'712.9
2017-Oct-02 21:56N 34°20' W 014°26'612.7
2017-Oct-02 21:29N 34°25' W 014°22'912.7
2017-Oct-02 20:47N 34°32' W 014°16'1113.0
2017-Oct-02 19:56N 34°42' W 014°10'613.1
2017-Oct-02 19:30N 34°47' W 014°07'713.2
2017-Oct-02 18:56N 34°53' W 014°03'613.1
2017-Oct-02 18:29N 34°59' W 013°59'713.2
2017-Oct-02 17:59N 35°04' W 013°56'713.5
2017-Oct-02 17:29N 35°10' W 013°52'913.4
2017-Oct-02 16:49N 35°18' W 013°46'1413.3
2017-Oct-02 15:45N 35°30' W 013°38'413.5
2017-Oct-02 15:30N 35°33' W 013°35'813.4
2017-Oct-02 14:54N 35°40' W 013°30'513.3
2017-Oct-02 14:30N 35°45' W 013°27'713.2
2017-Oct-02 13:58N 35°51' W 013°22'6013.1
2017-Oct-02 09:24N 36°41' W 012°43'1212.6
2017-Oct-02 08:28N 36°51' W 012°36'1912.9
2017-Oct-02 06:58N 37°10' W 012°31'4113.3
2017-Oct-02 03:54N 37°50' W 012°17'1313.6
2017-Oct-02 02:56N 38°02' W 012°12'713.3
2017-Oct-02 02:26N 38°09' W 012°09'613.3
2017-Oct-02 02:00N 38°14' W 012°08'613.0
2017-Oct-02 01:30N 38°20' W 012°06'612.9
2017-Oct-02 01:00N 38°27' W 012°03'613.0
2017-Oct-02 00:30N 38°33' W 012°01'713.0
2017-Oct-02 00:00N 38°39' W 011°58'613.0
2017-Oct-01 23:30N 38°45' W 011°56'713.0
2017-Oct-01 23:00N 38°51' W 011°53'713.1
2017-Oct-01 22:30N 38°58' W 011°51'713.1
2017-Oct-01 22:00N 39°04' W 011°48'612.9
2017-Oct-01 21:30N 39°10' W 011°46'612.8
2017-Oct-01 21:00N 39°16' W 011°44'612.8
2017-Oct-01 20:30N 39°22' W 011°41'912.7
2017-Oct-01 19:49N 39°31' W 011°38'412.8
2017-Oct-01 19:28N 39°35' W 011°36'612.8
2017-Oct-01 18:59N 39°41' W 011°34'1313.0
2017-Oct-01 18:01N 39°53' W 011°29'113.1
2017-Oct-01 17:58N 39°54' W 011°29'7612.7
2017-Oct-01 12:00N 41°06' W 011°00'14612.2 350 / 121024.0 5.4 21.019.519.0
2017-Oct-01 00:00N 43°30' W 010°24'22910.4 260 / 151022.0 5.4 19.017.519.5
2017-Sep-30 02:00N 43°46' W 005°08'611.2
2017-Sep-30 01:30N 43°45' W 005°00'611.2
2017-Sep-30 01:00N 43°44' W 004°53'2411.7
2017-Sep-29 22:56N 43°40' W 004°19'511.9
2017-Sep-29 22:30N 43°39' W 004°13'611.9
2017-Sep-29 22:00N 43°38' W 004°05'612.2
2017-Sep-29 21:30N 43°37' W 003°56'612.2
2017-Sep-29 21:00N 43°36' W 003°48'611.8
2017-Sep-29 20:30N 43°31' W 003°45'4 7.8
2017-Sep-29 20:00N 43°27' W 003°48'1 0.4
2017-Sep-29 16:58N 43°27' W 003°49'0 0.0
2017-Sep-28 04:10N 43°27' W 003°49'0 0.0
2017-Sep-28 00:28N 43°27' W 003°49'0 0.0
2017-Sep-27 20:34N 43°27' W 003°49'0 0.0
2017-Sep-27 20:28N 43°27' W 003°49'0 0.0
2017-Sep-27 19:58N 43°27' W 003°49'0 0.0
2017-Sep-27 19:28N 43°27' W 003°49'0 0.0
2017-Sep-27 18:58N 43°27' W 003°49'0 0.0
2017-Sep-27 17:34N 43°27' W 003°49'0 0.1
2017-Sep-27 17:28N 43°27' W 003°49'0 0.0
2017-Sep-27 16:58N 43°27' W 003°49'0 0.0
2017-Sep-27 16:16N 43°27' W 003°49'0 0.0
2017-Sep-27 15:34N 43°27' W 003°49'0 0.0
2017-Sep-27 15:22N 43°27' W 003°49'0 0.0
2017-Sep-27 14:55N 43°27' W 003°49'0 0.0
2017-Sep-27 13:22N 43°27' W 003°49'  
2017-Sep-25 03:44N 43°44' W 005°06'710.6
2017-Sep-25 03:07N 43°45' W 005°15'110.6
2017-Sep-25 02:59N 43°45' W 005°17'510.6
2017-Sep-25 02:30N 43°46' W 005°24'610.8
2017-Sep-25 01:57N 43°47' W 005°32'510.5
2017-Sep-25 01:27N 43°48' W 005°39'510.5
2017-Sep-25 01:00N 43°49' W 005°46'610.8
2017-Sep-25 00:29N 43°49' W 005°53'510.6
2017-Sep-25 00:00N 43°50' W 006°01'5310.6
2017-Sep-24 18:58N 43°56' W 007°14'510.2
2017-Sep-24 18:29N 43°57' W 007°21'510.4
2017-Sep-24 18:00N 43°57' W 007°28'510.4
2017-Sep-24 17:30N 43°58' W 007°35'510.4
2017-Sep-24 17:00N 43°58' W 007°42'510.3
2017-Sep-24 16:30N 43°58' W 007°49'510.4
2017-Sep-24 16:00N 43°57' W 007°57'510.3
2017-Sep-24 15:30N 43°57' W 008°04'910.4
2017-Sep-24 14:40N 43°56' W 008°16'310.7
2017-Sep-24 14:26N 43°56' W 008°19'  

Dump ship's entire track history